sensor_id;sensor_type;location;lat;lon;timestamp;temperature;humidity
10660;DHT22;5378;53.206;13.316;2023-03-14T00:02:29;11.20;99.90
10660;DHT22;5378;53.206;13.316;2023-03-14T00:05:17;11.20;99.90
10660;DHT22;5378;53.206;13.316;2023-03-14T00:08:05;11.20;99.90
10660;DHT22;5378;53.206;13.316;2023-03-14T00:10:52;11.10;99.90
10660;DHT22;5378;53.206;13.316;2023-03-14T00:13:39;11.10;99.90
10660;DHT22;5378;53.206;13.316;2023-03-14T00:16:26;11.10;99.90
10660;DHT22;5378;53.206;13.316;2023-03-14T00:19:13;11.00;99.90
10660;DHT22;5378;53.206;13.316;2023-03-14T00:22:01;11.00;99.90
10660;DHT22;5378;53.206;13.316;2023-03-14T00:24:49;11.00;99.90
10660;DHT22;5378;53.206;13.316;2023-03-14T00:27:37;10.90;99.90
10660;DHT22;5378;53.206;13.316;2023-03-14T00:30:24;10.90;99.90
10660;DHT22;5378;53.206;13.316;2023-03-14T00:33:11;10.80;99.90
10660;DHT22;5378;53.206;13.316;2023-03-14T00:36:01;10.70;99.90
10660;DHT22;5378;53.206;13.316;2023-03-14T00:38:51;10.70;99.90
10660;DHT22;5378;53.206;13.316;2023-03-14T00:41:38;10.70;99.90
10660;DHT22;5378;53.206;13.316;2023-03-14T00:44:25;10.70;99.90
10660;DHT22;5378;53.206;13.316;2023-03-14T00:47:12;10.70;99.90
10660;DHT22;5378;53.206;13.316;2023-03-14T00:50:01;10.70;99.90
10660;DHT22;5378;53.206;13.316;2023-03-14T00:52:48;10.80;99.90
10660;DHT22;5378;53.206;13.316;2023-03-14T00:55:37;10.80;99.90
10660;DHT22;5378;53.206;13.316;2023-03-14T00:58:25;10.70;99.90
10660;DHT22;5378;53.206;13.316;2023-03-14T01:01:14;10.70;99.90
10660;DHT22;5378;53.206;13.316;2023-03-14T01:04:02;10.70;99.90
10660;DHT22;5378;53.206;13.316;2023-03-14T01:06:49;10.70;99.90
10660;DHT22;5378;53.206;13.316;2023-03-14T01:09:36;10.60;99.90
10660;DHT22;5378;53.206;13.316;2023-03-14T01:12:24;10.60;99.90
10660;DHT22;5378;53.206;13.316;2023-03-14T01:15:11;10.50;99.90
10660;DHT22;5378;53.206;13.316;2023-03-14T01:17:57;10.60;99.90
10660;DHT22;5378;53.206;13.316;2023-03-14T01:20:44;10.60;99.90
10660;DHT22;5378;53.206;13.316;2023-03-14T01:23:32;10.60;99.90
10660;DHT22;5378;53.206;13.316;2023-03-14T01:26:21;10.50;99.90
10660;DHT22;5378;53.206;13.316;2023-03-14T01:29:10;10.40;99.90
10660;DHT22;5378;53.206;13.316;2023-03-14T01:31:58;10.30;99.90
10660;DHT22;5378;53.206;13.316;2023-03-14T01:34:45;10.40;99.90
10660;DHT22;5378;53.206;13.316;2023-03-14T01:37:32;10.30;99.90
10660;DHT22;5378;53.206;13.316;2023-03-14T01:40:21;10.30;99.90
10660;DHT22;5378;53.206;13.316;2023-03-14T01:43:14;10.40;99.90
10660;DHT22;5378;53.206;13.316;2023-03-14T01:46:35;10.40;99.90
10660;DHT22;5378;53.206;13.316;2023-03-14T01:49:26;10.40;99.90
10660;DHT22;5378;53.206;13.316;2023-03-14T01:52:23;10.50;99.90
10660;DHT22;5378;53.206;13.316;2023-03-14T01:55:14;10.40;99.90
10660;DHT22;5378;53.206;13.316;2023-03-14T01:58:03;10.50;99.90
10660;DHT22;5378;53.206;13.316;2023-03-14T02:00:52;10.50;99.90
10660;DHT22;5378;53.206;13.316;2023-03-14T02:03:46;10.50;99.90
10660;DHT22;5378;53.206;13.316;2023-03-14T02:06:40;10.50;99.90
10660;DHT22;5378;53.206;13.316;2023-03-14T02:09:30;10.40;99.90
10660;DHT22;5378;53.206;13.316;2023-03-14T02:12:20;10.50;99.90
10660;DHT22;5378;53.206;13.316;2023-03-14T02:15:23;10.40;99.90
10660;DHT22;5378;53.206;13.316;2023-03-14T02:18:25;10.50;99.90
10660;DHT22;5378;53.206;13.316;2023-03-14T02:21:47;10.50;99.90
10660;DHT22;5378;53.206;13.316;2023-03-14T02:24:43;10.50;99.90
10660;DHT22;5378;53.206;13.316;2023-03-14T02:27:35;10.50;99.90
10660;DHT22;5378;53.206;13.316;2023-03-14T02:30:24;10.50;99.90
10660;DHT22;5378;53.206;13.316;2023-03-14T02:33:14;10.60;99.90
10660;DHT22;5378;53.206;13.316;2023-03-14T02:36:07;10.60;99.90
10660;DHT22;5378;53.206;13.316;2023-03-14T02:39:01;10.60;99.90
10660;DHT22;5378;53.206;13.316;2023-03-14T02:41:52;10.60;99.90
10660;DHT22;5378;53.206;13.316;2023-03-14T02:44:49;10.50;99.90
10660;DHT22;5378;53.206;13.316;2023-03-14T02:47:41;10.60;99.90
10660;DHT22;5378;53.206;13.316;2023-03-14T02:50:31;10.60;99.90
10660;DHT22;5378;53.206;13.316;2023-03-14T02:53:23;10.60;99.90
10660;DHT22;5378;53.206;13.316;2023-03-14T02:56:14;10.50;99.90
10660;DHT22;5378;53.206;13.316;2023-03-14T02:59:02;10.50;99.90
10660;DHT22;5378;53.206;13.316;2023-03-14T03:02:13;10.40;99.90
10660;DHT22;5378;53.206;13.316;2023-03-14T03:04:59;10.40;99.90
10660;DHT22;5378;53.206;13.316;2023-03-14T03:07:46;10.40;99.90
10660;DHT22;5378;53.206;13.316;2023-03-14T03:10:34;10.40;99.90
10660;DHT22;5378;53.206;13.316;2023-03-14T03:13:21;10.40;99.90
10660;DHT22;5378;53.206;13.316;2023-03-14T03:16:11;10.40;99.90
10660;DHT22;5378;53.206;13.316;2023-03-14T03:19:00;10.40;99.90
10660;DHT22;5378;53.206;13.316;2023-03-14T03:21:47;10.40;99.90
10660;DHT22;5378;53.206;13.316;2023-03-14T03:24:34;10.40;99.90
10660;DHT22;5378;53.206;13.316;2023-03-14T03:27:22;10.40;99.90
10660;DHT22;5378;53.206;13.316;2023-03-14T03:30:10;10.40;99.90
10660;DHT22;5378;53.206;13.316;2023-03-14T03:32:57;10.40;99.90
10660;DHT22;5378;53.206;13.316;2023-03-14T03:35:49;10.50;99.90
10660;DHT22;5378;53.206;13.316;2023-03-14T03:38:47;10.60;99.90
10660;DHT22;5378;53.206;13.316;2023-03-14T03:41:35;10.80;99.90
10660;DHT22;5378;53.206;13.316;2023-03-14T03:44:22;10.80;99.90
10660;DHT22;5378;53.206;13.316;2023-03-14T03:47:10;10.90;99.90
10660;DHT22;5378;53.206;13.316;2023-03-14T03:49:57;10.90;99.90
10660;DHT22;5378;53.206;13.316;2023-03-14T03:52:45;11.00;99.90
10660;DHT22;5378;53.206;13.316;2023-03-14T03:55:33;11.10;99.90
10660;DHT22;5378;53.206;13.316;2023-03-14T03:58:20;11.10;99.90
10660;DHT22;5378;53.206;13.316;2023-03-14T04:01:07;11.10;99.90
10660;DHT22;5378;53.206;13.316;2023-03-14T04:03:56;11.10;99.90
10660;DHT22;5378;53.206;13.316;2023-03-14T04:06:44;11.10;99.90
10660;DHT22;5378;53.206;13.316;2023-03-14T04:09:33;11.20;99.90
10660;DHT22;5378;53.206;13.316;2023-03-14T04:12:37;11.10;99.90
10660;DHT22;5378;53.206;13.316;2023-03-14T04:15:34;11.00;99.90
10660;DHT22;5378;53.206;13.316;2023-03-14T04:18:28;10.90;99.90
10660;DHT22;5378;53.206;13.316;2023-03-14T04:21:16;10.80;99.90
10660;DHT22;5378;53.206;13.316;2023-03-14T04:24:08;10.70;99.90
10660;DHT22;5378;53.206;13.316;2023-03-14T04:26:57;10.70;99.90
10660;DHT22;5378;53.206;13.316;2023-03-14T04:29:44;10.70;99.90
10660;DHT22;5378;53.206;13.316;2023-03-14T04:32:34;10.70;99.90
10660;DHT22;5378;53.206;13.316;2023-03-14T04:35:23;10.70;99.90
10660;DHT22;5378;53.206;13.316;2023-03-14T04:38:13;10.70;99.90
10660;DHT22;5378;53.206;13.316;2023-03-14T04:41:04;10.70;99.90
10660;DHT22;5378;53.206;13.316;2023-03-14T04:43:53;10.70;99.90
10660;DHT22;5378;53.206;13.316;2023-03-14T04:46:40;10.70;99.90
10660;DHT22;5378;53.206;13.316;2023-03-14T04:49:29;10.80;99.90
10660;DHT22;5378;53.206;13.316;2023-03-14T04:52:18;10.80;99.90
10660;DHT22;5378;53.206;13.316;2023-03-14T04:55:05;10.80;99.90
10660;DHT22;5378;53.206;13.316;2023-03-14T04:57:53;10.50;99.90
10660;DHT22;5378;53.206;13.316;2023-03-14T05:00:42;10.50;99.90
10660;DHT22;5378;53.206;13.316;2023-03-14T05:03:43;10.50;99.90
10660;DHT22;5378;53.206;13.316;2023-03-14T05:07:02;10.50;99.90
10660;DHT22;5378;53.206;13.316;2023-03-14T05:10:12;10.40;99.90
10660;DHT22;5378;53.206;13.316;2023-03-14T05:13:05;10.40;99.90
10660;DHT22;5378;53.206;13.316;2023-03-14T05:16:29;10.40;99.90
10660;DHT22;5378;53.206;13.316;2023-03-14T05:19:22;10.40;99.90
10660;DHT22;5378;53.206;13.316;2023-03-14T05:22:28;10.40;99.90
10660;DHT22;5378;53.206;13.316;2023-03-14T05:25:31;10.40;99.90
10660;DHT22;5378;53.206;13.316;2023-03-14T05:28:50;10.50;99.90
10660;DHT22;5378;53.206;13.316;2023-03-14T05:31:52;10.50;99.90
10660;DHT22;5378;53.206;13.316;2023-03-14T05:34:50;10.50;99.90
10660;DHT22;5378;53.206;13.316;2023-03-14T05:37:55;10.50;99.90
10660;DHT22;5378;53.206;13.316;2023-03-14T05:41:06;10.50;99.90
10660;DHT22;5378;53.206;13.316;2023-03-14T05:44:01;10.50;99.90
10660;DHT22;5378;53.206;13.316;2023-03-14T05:47:03;10.50;99.90
10660;DHT22;5378;53.206;13.316;2023-03-14T05:50:15;10.40;99.90
10660;DHT22;5378;53.206;13.316;2023-03-14T05:53:19;10.50;99.90
10660;DHT22;5378;53.206;13.316;2023-03-14T05:56:18;10.70;99.90
10660;DHT22;5378;53.206;13.316;2023-03-14T05:59:34;10.60;99.90
10660;DHT22;5378;53.206;13.316;2023-03-14T06:02:41;10.60;99.90
10660;DHT22;5378;53.206;13.316;2023-03-14T06:05:38;10.70;99.90
10660;DHT22;5378;53.206;13.316;2023-03-14T06:08:25;10.70;99.90
10660;DHT22;5378;53.206;13.316;2023-03-14T06:11:12;10.70;99.90
10660;DHT22;5378;53.206;13.316;2023-03-14T06:14:00;10.60;99.90
10660;DHT22;5378;53.206;13.316;2023-03-14T06:16:47;10.70;99.90
10660;DHT22;5378;53.206;13.316;2023-03-14T06:19:37;10.60;99.90
10660;DHT22;5378;53.206;13.316;2023-03-14T06:22:24;10.60;99.90
10660;DHT22;5378;53.206;13.316;2023-03-14T06:25:12;10.60;99.90
10660;DHT22;5378;53.206;13.316;2023-03-14T06:28:03;10.70;99.90
10660;DHT22;5378;53.206;13.316;2023-03-14T06:30:49;10.70;99.90
10660;DHT22;5378;53.206;13.316;2023-03-14T06:33:37;10.70;99.90
10660;DHT22;5378;53.206;13.316;2023-03-14T06:36:27;10.80;99.90
10660;DHT22;5378;53.206;13.316;2023-03-14T06:39:15;10.80;99.90
10660;DHT22;5378;53.206;13.316;2023-03-14T06:42:05;10.90;99.90
10660;DHT22;5378;53.206;13.316;2023-03-14T06:44:54;10.90;99.90
10660;DHT22;5378;53.206;13.316;2023-03-14T06:47:42;11.00;99.90
10660;DHT22;5378;53.206;13.316;2023-03-14T06:50:30;11.00;99.90
10660;DHT22;5378;53.206;13.316;2023-03-14T06:53:19;11.10;99.90
10660;DHT22;5378;53.206;13.316;2023-03-14T06:56:08;11.10;99.90
10660;DHT22;5378;53.206;13.316;2023-03-14T06:58:55;11.10;99.90
10660;DHT22;5378;53.206;13.316;2023-03-14T07:01:45;11.40;99.90
10660;DHT22;5378;53.206;13.316;2023-03-14T07:04:33;11.20;99.90
10660;DHT22;5378;53.206;13.316;2023-03-14T07:07:20;11.30;99.90
10660;DHT22;5378;53.206;13.316;2023-03-14T07:10:10;11.40;99.90
10660;DHT22;5378;53.206;13.316;2023-03-14T07:12:57;11.50;99.90
10660;DHT22;5378;53.206;13.316;2023-03-14T07:15:46;11.60;99.90
10660;DHT22;5378;53.206;13.316;2023-03-14T07:18:34;11.60;99.90
10660;DHT22;5378;53.206;13.316;2023-03-14T07:21:24;11.70;99.90
10660;DHT22;5378;53.206;13.316;2023-03-14T07:24:11;11.70;99.90
10660;DHT22;5378;53.206;13.316;2023-03-14T07:27:00;11.80;99.90
10660;DHT22;5378;53.206;13.316;2023-03-14T07:29:47;11.70;99.90
10660;DHT22;5378;53.206;13.316;2023-03-14T07:32:34;11.70;99.90
10660;DHT22;5378;53.206;13.316;2023-03-14T07:35:21;12.00;99.90
10660;DHT22;5378;53.206;13.316;2023-03-14T07:38:08;12.40;99.90
10660;DHT22;5378;53.206;13.316;2023-03-14T07:41:06;12.70;99.90
10660;DHT22;5378;53.206;13.316;2023-03-14T07:43:59;13.00;99.90
10660;DHT22;5378;53.206;13.316;2023-03-14T07:46:46;13.30;99.90
10660;DHT22;5378;53.206;13.316;2023-03-14T07:49:34;14.10;99.90
10660;DHT22;5378;53.206;13.316;2023-03-14T07:52:20;15.80;99.90
10660;DHT22;5378;53.206;13.316;2023-03-14T07:55:08;17.30;99.90
10660;DHT22;5378;53.206;13.316;2023-03-14T07:57:56;18.20;99.90
10660;DHT22;5378;53.206;13.316;2023-03-14T08:00:44;19.20;99.90
10660;DHT22;5378;53.206;13.316;2023-03-14T08:03:31;19.90;99.90
10660;DHT22;5378;53.206;13.316;2023-03-14T08:06:18;20.60;99.90
10660;DHT22;5378;53.206;13.316;2023-03-14T08:09:05;20.70;99.90
10660;DHT22;5378;53.206;13.316;2023-03-14T08:11:52;21.30;99.90
10660;DHT22;5378;53.206;13.316;2023-03-14T08:14:39;21.80;99.90
10660;DHT22;5378;53.206;13.316;2023-03-14T08:17:27;21.80;99.90
10660;DHT22;5378;53.206;13.316;2023-03-14T08:20:15;22.40;99.90
10660;DHT22;5378;53.206;13.316;2023-03-14T08:23:02;22.30;99.90
10660;DHT22;5378;53.206;13.316;2023-03-14T08:25:50;22.60;99.90
10660;DHT22;5378;53.206;13.316;2023-03-14T08:28:36;22.10;99.90
10660;DHT22;5378;53.206;13.316;2023-03-14T08:31:23;21.20;99.90
10660;DHT22;5378;53.206;13.316;2023-03-14T08:34:12;19.90;99.90
10660;DHT22;5378;53.206;13.316;2023-03-14T08:36:59;18.80;99.90
10660;DHT22;5378;53.206;13.316;2023-03-14T08:39:49;18.60;99.90
10660;DHT22;5378;53.206;13.316;2023-03-14T08:42:36;18.50;99.90
10660;DHT22;5378;53.206;13.316;2023-03-14T08:45:23;18.90;99.90
10660;DHT22;5378;53.206;13.316;2023-03-14T08:48:11;19.60;99.90
10660;DHT22;5378;53.206;13.316;2023-03-14T08:51:05;20.10;99.90
10660;DHT22;5378;53.206;13.316;2023-03-14T08:53:52;19.60;99.90
10660;DHT22;5378;53.206;13.316;2023-03-14T08:56:40;18.80;99.90
10660;DHT22;5378;53.206;13.316;2023-03-14T08:59:27;17.90;99.90
10660;DHT22;5378;53.206;13.316;2023-03-14T09:02:14;17.30;99.90
10660;DHT22;5378;53.206;13.316;2023-03-14T09:05:01;16.80;99.90
10660;DHT22;5378;53.206;13.316;2023-03-14T09:07:49;16.50;99.90
10660;DHT22;5378;53.206;13.316;2023-03-14T09:10:36;15.80;99.90
10660;DHT22;5378;53.206;13.316;2023-03-14T09:13:24;15.50;99.90
10660;DHT22;5378;53.206;13.316;2023-03-14T09:16:11;15.20;99.90
10660;DHT22;5378;53.206;13.316;2023-03-14T09:18:58;15.10;99.90
10660;DHT22;5378;53.206;13.316;2023-03-14T09:21:45;15.20;99.90
10660;DHT22;5378;53.206;13.316;2023-03-14T09:24:34;15.50;99.90
10660;DHT22;5378;53.206;13.316;2023-03-14T09:27:21;15.60;99.90
10660;DHT22;5378;53.206;13.316;2023-03-14T09:30:09;15.90;99.90
10660;DHT22;5378;53.206;13.316;2023-03-14T09:32:56;16.00;99.90
10660;DHT22;5378;53.206;13.316;2023-03-14T09:35:44;16.00;99.90
10660;DHT22;5378;53.206;13.316;2023-03-14T09:38:31;15.80;99.90
10660;DHT22;5378;53.206;13.316;2023-03-14T09:41:24;15.50;99.90
10660;DHT22;5378;53.206;13.316;2023-03-14T09:44:15;15.30;99.90
10660;DHT22;5378;53.206;13.316;2023-03-14T09:47:06;15.20;99.90
10660;DHT22;5378;53.206;13.316;2023-03-14T09:49:54;15.00;99.90
10660;DHT22;5378;53.206;13.316;2023-03-14T09:52:44;15.00;99.90
10660;DHT22;5378;53.206;13.316;2023-03-14T09:55:33;14.90;99.90
10660;DHT22;5378;53.206;13.316;2023-03-14T09:58:24;14.70;99.90
10660;DHT22;5378;53.206;13.316;2023-03-14T10:01:16;14.60;99.90
10660;DHT22;5378;53.206;13.316;2023-03-14T10:04:07;14.60;99.90
10660;DHT22;5378;53.206;13.316;2023-03-14T10:06:57;14.60;99.90
10660;DHT22;5378;53.206;13.316;2023-03-14T10:09:45;14.60;99.90
10660;DHT22;5378;53.206;13.316;2023-03-14T10:12:34;14.70;99.90
10660;DHT22;5378;53.206;13.316;2023-03-14T10:15:26;14.80;99.90
10660;DHT22;5378;53.206;13.316;2023-03-14T10:18:14;15.00;99.90
10660;DHT22;5378;53.206;13.316;2023-03-14T10:21:05;15.10;99.90
10660;DHT22;5378;53.206;13.316;2023-03-14T10:23:52;15.00;99.90
10660;DHT22;5378;53.206;13.316;2023-03-14T10:26:40;14.80;99.90
10660;DHT22;5378;53.206;13.316;2023-03-14T10:29:27;14.80;99.90
10660;DHT22;5378;53.206;13.316;2023-03-14T10:32:19;14.60;99.90
10660;DHT22;5378;53.206;13.316;2023-03-14T10:35:17;14.60;99.90
10660;DHT22;5378;53.206;13.316;2023-03-14T10:38:13;14.50;99.90
10660;DHT22;5378;53.206;13.316;2023-03-14T10:41:00;14.30;99.90
10660;DHT22;5378;53.206;13.316;2023-03-14T10:43:50;14.10;99.90
10660;DHT22;5378;53.206;13.316;2023-03-14T10:46:38;13.90;99.90
10660;DHT22;5378;53.206;13.316;2023-03-14T10:49:46;13.90;99.90
10660;DHT22;5378;53.206;13.316;2023-03-14T10:52:33;14.00;99.90
10660;DHT22;5378;53.206;13.316;2023-03-14T10:55:42;14.10;99.90
10660;DHT22;5378;53.206;13.316;2023-03-14T10:58:35;14.20;99.90
10660;DHT22;5378;53.206;13.316;2023-03-14T11:01:37;14.20;99.90
10660;DHT22;5378;53.206;13.316;2023-03-14T11:04:47;14.30;99.90
10660;DHT22;5378;53.206;13.316;2023-03-14T11:07:40;14.50;99.90
10660;DHT22;5378;53.206;13.316;2023-03-14T11:10:32;14.50;99.90
10660;DHT22;5378;53.206;13.316;2023-03-14T11:13:23;14.40;99.90
10660;DHT22;5378;53.206;13.316;2023-03-14T11:16:18;14.40;99.90
10660;DHT22;5378;53.206;13.316;2023-03-14T11:19:19;14.40;99.90
10660;DHT22;5378;53.206;13.316;2023-03-14T11:22:21;14.30;99.90
10660;DHT22;5378;53.206;13.316;2023-03-14T11:25:18;14.30;99.90
10660;DHT22;5378;53.206;13.316;2023-03-14T11:28:17;14.40;99.90
10660;DHT22;5378;53.206;13.316;2023-03-14T11:31:12;14.30;99.90
10660;DHT22;5378;53.206;13.316;2023-03-14T11:34:10;14.20;99.90
10660;DHT22;5378;53.206;13.316;2023-03-14T11:37:00;14.10;99.90
10660;DHT22;5378;53.206;13.316;2023-03-14T11:39:56;14.20;99.90
10660;DHT22;5378;53.206;13.316;2023-03-14T11:42:47;14.10;99.90
10660;DHT22;5378;53.206;13.316;2023-03-14T11:45:38;13.90;99.90
10660;DHT22;5378;53.206;13.316;2023-03-14T11:48:34;13.70;99.90
10660;DHT22;5378;53.206;13.316;2023-03-14T11:51:24;13.60;99.90
10660;DHT22;5378;53.206;13.316;2023-03-14T11:54:16;13.60;99.90
10660;DHT22;5378;53.206;13.316;2023-03-14T11:57:10;13.50;99.90
10660;DHT22;5378;53.206;13.316;2023-03-14T12:00:02;13.70;99.90
10660;DHT22;5378;53.206;13.316;2023-03-14T12:03:02;13.80;99.90
10660;DHT22;5378;53.206;13.316;2023-03-14T12:06:05;14.10;99.90
10660;DHT22;5378;53.206;13.316;2023-03-14T12:08:56;14.20;99.90
10660;DHT22;5378;53.206;13.316;2023-03-14T12:11:48;14.10;99.90
10660;DHT22;5378;53.206;13.316;2023-03-14T12:14:44;13.90;99.90
10660;DHT22;5378;53.206;13.316;2023-03-14T12:17:36;13.70;99.90
10660;DHT22;5378;53.206;13.316;2023-03-14T12:20:24;13.50;99.90
10660;DHT22;5378;53.206;13.316;2023-03-14T12:23:12;13.40;99.90
10660;DHT22;5378;53.206;13.316;2023-03-14T12:26:15;13.50;99.90
10660;DHT22;5378;53.206;13.316;2023-03-14T12:29:15;13.60;99.90
10660;DHT22;5378;53.206;13.316;2023-03-14T12:32:09;13.70;99.90
10660;DHT22;5378;53.206;13.316;2023-03-14T12:35:34;13.80;99.90
10660;DHT22;5378;53.206;13.316;2023-03-14T12:38:27;14.00;99.90
10660;DHT22;5378;53.206;13.316;2023-03-14T12:41:19;14.10;99.90
10660;DHT22;5378;53.206;13.316;2023-03-14T12:44:42;14.20;99.90
10660;DHT22;5378;53.206;13.316;2023-03-14T12:47:53;14.30;99.90
10660;DHT22;5378;53.206;13.316;2023-03-14T12:50:43;14.20;99.90
10660;DHT22;5378;53.206;13.316;2023-03-14T12:53:54;14.00;99.90
10660;DHT22;5378;53.206;13.316;2023-03-14T12:59:56;13.80;99.90
10660;DHT22;5378;53.206;13.316;2023-03-14T13:02:45;13.80;99.90
10660;DHT22;5378;53.206;13.316;2023-03-14T13:05:35;13.90;99.90
10660;DHT22;5378;53.206;13.316;2023-03-14T13:08:37;13.90;99.90
10660;DHT22;5378;53.206;13.316;2023-03-14T13:11:26;14.00;99.90
10660;DHT22;5378;53.206;13.316;2023-03-14T13:14:13;14.20;99.90
10660;DHT22;5378;53.206;13.316;2023-03-14T13:17:01;14.30;99.90
10660;DHT22;5378;53.206;13.316;2023-03-14T13:20:12;14.20;99.90
10660;DHT22;5378;53.206;13.316;2023-03-14T13:23:03;14.10;99.90
10660;DHT22;5378;53.206;13.316;2023-03-14T13:25:50;14.40;99.90
10660;DHT22;5378;53.206;13.316;2023-03-14T13:28:38;14.60;99.90
10660;DHT22;5378;53.206;13.316;2023-03-14T13:31:26;14.60;99.90
10660;DHT22;5378;53.206;13.316;2023-03-14T13:34:12;14.70;99.90
10660;DHT22;5378;53.206;13.316;2023-03-14T13:37:00;14.90;99.90
10660;DHT22;5378;53.206;13.316;2023-03-14T13:39:50;14.90;99.90
10660;DHT22;5378;53.206;13.316;2023-03-14T13:42:38;14.90;99.90
10660;DHT22;5378;53.206;13.316;2023-03-14T13:45:25;14.90;99.90
10660;DHT22;5378;53.206;13.316;2023-03-14T13:48:12;14.80;99.90
10660;DHT22;5378;53.206;13.316;2023-03-14T13:51:04;14.70;99.90
10660;DHT22;5378;53.206;13.316;2023-03-14T13:53:53;14.70;99.90
10660;DHT22;5378;53.206;13.316;2023-03-14T13:56:42;14.50;99.90
10660;DHT22;5378;53.206;13.316;2023-03-14T13:59:30;14.30;99.90
10660;DHT22;5378;53.206;13.316;2023-03-14T14:02:18;14.30;99.90
10660;DHT22;5378;53.206;13.316;2023-03-14T14:05:06;14.30;99.90
10660;DHT22;5378;53.206;13.316;2023-03-14T14:07:53;14.30;99.90
10660;DHT22;5378;53.206;13.316;2023-03-14T14:10:41;14.30;99.90
10660;DHT22;5378;53.206;13.316;2023-03-14T14:13:32;14.40;99.90
10660;DHT22;5378;53.206;13.316;2023-03-14T14:16:25;14.30;99.90
10660;DHT22;5378;53.206;13.316;2023-03-14T14:19:15;14.40;99.90
10660;DHT22;5378;53.206;13.316;2023-03-14T14:22:04;14.40;99.90
10660;DHT22;5378;53.206;13.316;2023-03-14T14:24:52;14.20;99.90
10660;DHT22;5378;53.206;13.316;2023-03-14T14:27:42;13.10;99.90
10660;DHT22;5378;53.206;13.316;2023-03-14T14:30:32;11.90;99.90
10660;DHT22;5378;53.206;13.316;2023-03-14T14:33:21;10.80;99.90
10660;DHT22;5378;53.206;13.316;2023-03-14T14:36:16;10.00;99.90
10660;DHT22;5378;53.206;13.316;2023-03-14T14:39:09;9.40;99.90
10660;DHT22;5378;53.206;13.316;2023-03-14T14:41:58;8.90;99.90
10660;DHT22;5378;53.206;13.316;2023-03-14T14:44:45;8.50;99.90
10660;DHT22;5378;53.206;13.316;2023-03-14T14:47:34;8.00;99.90
10660;DHT22;5378;53.206;13.316;2023-03-14T14:50:28;7.80;99.90
10660;DHT22;5378;53.206;13.316;2023-03-14T14:53:23;7.60;99.90
10660;DHT22;5378;53.206;13.316;2023-03-14T14:56:17;7.20;99.90
10660;DHT22;5378;53.206;13.316;2023-03-14T14:59:06;7.00;99.90
10660;DHT22;5378;53.206;13.316;2023-03-14T15:01:56;6.70;99.90
10660;DHT22;5378;53.206;13.316;2023-03-14T15:04:46;6.60;99.90
10660;DHT22;5378;53.206;13.316;2023-03-14T15:07:33;6.30;99.90
10660;DHT22;5378;53.206;13.316;2023-03-14T15:10:22;5.90;99.90
10660;DHT22;5378;53.206;13.316;2023-03-14T15:13:09;5.50;99.90
10660;DHT22;5378;53.206;13.316;2023-03-14T15:15:59;5.00;99.90
10660;DHT22;5378;53.206;13.316;2023-03-14T15:18:47;4.80;99.90
10660;DHT22;5378;53.206;13.316;2023-03-14T15:21:38;4.60;99.90
10660;DHT22;5378;53.206;13.316;2023-03-14T15:24:25;5.20;99.90
10660;DHT22;5378;53.206;13.316;2023-03-14T15:27:14;4.50;99.90
10660;DHT22;5378;53.206;13.316;2023-03-14T15:30:02;4.50;99.90
10660;DHT22;5378;53.206;13.316;2023-03-14T15:32:49;4.40;99.90
10660;DHT22;5378;53.206;13.316;2023-03-14T15:35:36;4.30;99.90
10660;DHT22;5378;53.206;13.316;2023-03-14T15:38:25;4.40;99.90
10660;DHT22;5378;53.206;13.316;2023-03-14T15:41:12;4.30;99.90
10660;DHT22;5378;53.206;13.316;2023-03-14T15:44:01;4.20;99.90
10660;DHT22;5378;53.206;13.316;2023-03-14T15:46:48;4.20;99.90
10660;DHT22;5378;53.206;13.316;2023-03-14T15:49:35;4.20;99.90
10660;DHT22;5378;53.206;13.316;2023-03-14T15:52:22;4.20;99.90
10660;DHT22;5378;53.206;13.316;2023-03-14T15:55:11;4.20;99.90
10660;DHT22;5378;53.206;13.316;2023-03-14T15:58:00;4.10;99.90
10660;DHT22;5378;53.206;13.316;2023-03-14T16:00:49;4.10;99.90
10660;DHT22;5378;53.206;13.316;2023-03-14T16:03:36;3.90;99.90
10660;DHT22;5378;53.206;13.316;2023-03-14T16:06:23;3.60;99.90
10660;DHT22;5378;53.206;13.316;2023-03-14T16:09:10;3.70;99.90
10660;DHT22;5378;53.206;13.316;2023-03-14T16:11:59;3.80;99.90
10660;DHT22;5378;53.206;13.316;2023-03-14T16:14:47;3.90;99.90
10660;DHT22;5378;53.206;13.316;2023-03-14T16:17:34;3.90;99.90
10660;DHT22;5378;53.206;13.316;2023-03-14T16:20:23;4.00;99.90
10660;DHT22;5378;53.206;13.316;2023-03-14T16:23:14;4.10;99.90
10660;DHT22;5378;53.206;13.316;2023-03-14T16:26:04;4.10;99.90
10660;DHT22;5378;53.206;13.316;2023-03-14T16:28:53;4.10;99.90
10660;DHT22;5378;53.206;13.316;2023-03-14T16:31:40;4.20;99.90
10660;DHT22;5378;53.206;13.316;2023-03-14T16:34:28;4.30;99.90
10660;DHT22;5378;53.206;13.316;2023-03-14T16:37:16;4.20;99.90
10660;DHT22;5378;53.206;13.316;2023-03-14T16:40:05;4.20;99.90
10660;DHT22;5378;53.206;13.316;2023-03-14T16:42:57;4.30;99.90
10660;DHT22;5378;53.206;13.316;2023-03-14T16:46:01;4.30;99.90
10660;DHT22;5378;53.206;13.316;2023-03-14T16:48:48;4.40;99.90
10660;DHT22;5378;53.206;13.316;2023-03-14T16:51:36;4.40;99.90
10660;DHT22;5378;53.206;13.316;2023-03-14T16:54:23;4.40;99.90
10660;DHT22;5378;53.206;13.316;2023-03-14T16:57:10;4.40;99.90
10660;DHT22;5378;53.206;13.316;2023-03-14T16:59:57;4.40;99.90
10660;DHT22;5378;53.206;13.316;2023-03-14T17:02:45;4.40;99.90
10660;DHT22;5378;53.206;13.316;2023-03-14T17:05:33;4.40;99.90
10660;DHT22;5378;53.206;13.316;2023-03-14T17:08:20;4.50;99.90
10660;DHT22;5378;53.206;13.316;2023-03-14T17:11:07;4.50;99.90
10660;DHT22;5378;53.206;13.316;2023-03-14T17:13:55;4.60;99.90
10660;DHT22;5378;53.206;13.316;2023-03-14T17:16:42;4.50;99.90
10660;DHT22;5378;53.206;13.316;2023-03-14T17:19:30;4.50;99.90
10660;DHT22;5378;53.206;13.316;2023-03-14T17:22:18;4.50;99.90
10660;DHT22;5378;53.206;13.316;2023-03-14T17:25:09;4.50;99.90
10660;DHT22;5378;53.206;13.316;2023-03-14T17:27:56;4.40;99.90
10660;DHT22;5378;53.206;13.316;2023-03-14T17:30:43;4.40;99.90
10660;DHT22;5378;53.206;13.316;2023-03-14T17:33:31;4.40;99.90
10660;DHT22;5378;53.206;13.316;2023-03-14T17:36:20;4.50;99.90
10660;DHT22;5378;53.206;13.316;2023-03-14T17:39:11;4.50;99.90
10660;DHT22;5378;53.206;13.316;2023-03-14T17:41:58;4.50;99.90
10660;DHT22;5378;53.206;13.316;2023-03-14T17:44:45;4.50;99.90
10660;DHT22;5378;53.206;13.316;2023-03-14T17:47:32;4.50;99.90
10660;DHT22;5378;53.206;13.316;2023-03-14T17:50:19;4.50;99.90
10660;DHT22;5378;53.206;13.316;2023-03-14T17:53:08;4.40;99.90
10660;DHT22;5378;53.206;13.316;2023-03-14T17:55:55;4.50;99.90
10660;DHT22;5378;53.206;13.316;2023-03-14T17:58:42;4.60;99.90
10660;DHT22;5378;53.206;13.316;2023-03-14T18:01:29;4.50;99.90
10660;DHT22;5378;53.206;13.316;2023-03-14T18:04:17;4.50;99.90
10660;DHT22;5378;53.206;13.316;2023-03-14T18:07:05;4.40;99.90
10660;DHT22;5378;53.206;13.316;2023-03-14T18:09:54;4.50;99.90